createdAt,value
2019-05-01T00:02:48.035Z,4.73
2019-05-01T00:05:28.536Z,1.97
2019-05-01T00:08:01.652Z,2.40
2019-05-01T00:10:34.990Z,3.97
2019-05-01T00:13:10.133Z,1.27
2019-05-01T00:15:43.291Z,1.20
2019-05-01T00:18:16.352Z,2.10
2019-05-01T00:20:49.563Z,1.07
2019-05-01T00:23:22.661Z,2.40
2019-05-01T00:25:55.978Z,1.17
2019-05-01T00:28:28.907Z,1.00
2019-05-01T00:31:02.148Z,2.17
2019-05-01T00:33:35.474Z,1.10
2019-05-01T00:36:08.523Z,2.27
2019-05-01T00:38:41.601Z,3.10
2019-05-01T00:41:14.653Z,1.00
2019-05-01T00:43:47.892Z,5.17
2019-05-01T00:46:21.313Z,1.87
2019-05-01T00:48:54.558Z,1.33
2019-05-01T00:51:28.908Z,1.00
2019-05-01T00:54:02.056Z,1.20
2019-05-01T00:56:47.377Z,2.27
2019-05-01T00:59:40.699Z,2.20
2019-05-01T01:02:24.341Z,2.20
2019-05-01T01:04:57.734Z,2.07
2019-05-01T01:07:30.991Z,1.87
2019-05-01T01:10:04.199Z,0.87
2019-05-01T01:12:37.264Z,3.13
2019-05-01T01:15:11.577Z,1.70
2019-05-01T01:17:44.539Z,1.50
2019-05-01T01:20:17.782Z,3.87
2019-05-01T01:22:50.959Z,2.07
2019-05-01T01:25:24.226Z,1.80
2019-05-01T01:27:57.384Z,2.07
2019-05-01T01:30:30.723Z,0.80
2019-05-01T01:33:05.090Z,1.50
2019-05-01T01:35:38.382Z,3.73
2019-05-01T01:38:11.575Z,2.47
2019-05-01T01:40:45.070Z,1.53
2019-05-01T01:43:55.113Z,4.30
2019-05-01T01:46:30.244Z,1.73
2019-05-01T01:49:03.367Z,1.30
2019-05-01T01:51:36.501Z,3.10
2019-05-01T01:54:10.527Z,2.73
2019-05-01T01:56:47.278Z,1.63
2019-05-01T01:59:20.982Z,2.43
2019-05-01T02:02:08.460Z,2.10
2019-05-01T02:05:01.990Z,1.90
2019-05-01T02:07:35.242Z,1.30
2019-05-01T02:10:09.670Z,3.00
2019-05-01T02:12:46.431Z,1.50
2019-05-01T02:15:19.749Z,1.57
2019-05-01T02:17:55.625Z,2.87
2019-05-01T02:20:30.141Z,1.50
2019-05-01T02:23:05.318Z,2.10
2019-05-01T02:25:41.102Z,3.33
2019-05-01T02:28:35.378Z,3.00
2019-05-01T02:31:36.290Z,1.43
2019-05-01T02:34:12.255Z,2.27
2019-05-01T02:36:46.567Z,1.50
2019-05-01T02:39:23.200Z,3.27
2019-05-01T02:41:59.841Z,2.80
2019-05-01T02:44:43.360Z,2.70
2019-05-01T02:47:20.096Z,1.10
2019-05-01T02:50:00.143Z,1.13
2019-05-01T02:52:37.243Z,1.23
2019-05-01T02:55:20.724Z,2.03
2019-05-01T02:57:53.934Z,4.30
2019-05-01T03:00:28.650Z,2.57
2019-05-01T03:03:03.443Z,3.50
2019-05-01T03:05:36.912Z,4.77
2019-05-01T03:08:10.321Z,2.00
2019-05-01T03:10:43.794Z,2.70
2019-05-01T03:13:20.674Z,2.40
2019-05-01T03:15:55.913Z,1.50
2019-05-01T03:18:37.846Z,2.40
2019-05-01T03:21:23.731Z,4.13
2019-05-01T03:24:16.604Z,1.37
2019-05-01T03:26:52.731Z,2.83
2019-05-01T03:29:28.235Z,2.27
2019-05-01T03:32:17.249Z,1.57
2019-05-01T03:34:51.420Z,1.43
2019-05-01T03:37:18.900Z,1.17
2019-05-01T03:39:55.162Z,2.80
2019-05-01T03:42:33.333Z,2.03
2019-05-01T03:45:09.062Z,1.10
2019-05-01T03:47:47.833Z,2.03
2019-05-01T03:50:21.335Z,1.93
2019-05-01T03:56:35.143Z,1.40
2019-05-01T18:59:28.095Z,8.23
2019-05-01T19:02:03.011Z,7.17
2019-05-01T19:07:48.602Z,8.83
2019-05-01T19:10:34.478Z,7.13
2019-05-01T19:13:28.894Z,5.67
2019-05-01T19:19:30.172Z,8.40
2019-05-01T19:22:07.921Z,6.53
2019-05-01T19:24:45.286Z,7.57
2019-05-01T19:33:59.111Z,4.40
2019-05-01T19:36:32.973Z,7.23
2019-05-01T19:39:13.052Z,5.77
2019-05-01T19:41:54.443Z,6.87
2019-05-01T19:44:26.459Z,10.40
2019-05-01T19:47:00.615Z,6.63
2019-05-01T19:53:14.763Z,6.53
2019-05-01T19:55:48.213Z,10.63
2019-05-01T19:58:23.665Z,9.80
2019-05-01T20:01:04.578Z,6.77
2019-05-01T20:03:38.581Z,7.50
2019-05-01T20:06:13.587Z,6.70
2019-05-01T20:08:46.973Z,10.00
2019-05-01T20:21:54.455Z,7.67
2019-05-01T20:24:27.867Z,3.83
2019-05-01T20:27:00.942Z,7.70
2019-05-01T20:29:36.817Z,6.87
2019-05-01T20:32:12.818Z,5.70
2019-05-01T20:34:48.010Z,6.07
2019-05-01T20:40:48.813Z,5.80
2019-05-01T20:46:39.427Z,7.20
2019-05-01T20:49:15.087Z,6.10
2019-05-01T20:51:48.275Z,6.77
2019-05-01T20:54:21.250Z,4.13
2019-05-01T20:57:02.528Z,5.20
2019-05-01T20:59:39.292Z,6.37
2019-05-01T21:02:10.422Z,7.23
2019-05-01T21:05:04.296Z,4.83
2019-05-01T21:07:58.359Z,6.17
2019-05-01T21:10:50.014Z,6.30
2019-05-01T21:13:17.575Z,5.80
2019-05-01T21:15:47.977Z,5.60
2019-05-01T21:18:25.815Z,5.90
2019-05-01T21:20:56.461Z,4.63
2019-05-01T21:23:33.333Z,6.80
2019-05-01T21:26:06.219Z,5.40
2019-05-01T21:28:42.099Z,5.20
2019-05-01T21:31:16.992Z,5.77
2019-05-01T21:33:51.029Z,4.57
2019-05-01T21:36:26.362Z,4.00
2019-05-01T21:39:01.176Z,6.03
2019-05-01T21:41:48.471Z,5.17
2019-05-01T21:44:44.472Z,3.50
2019-05-01T21:47:17.646Z,7.20
2019-05-01T21:50:13.210Z,4.43
2019-05-01T21:53:15.961Z,5.93
2019-05-01T21:55:50.588Z,6.03
2019-05-01T21:58:28.329Z,8.33
2019-05-01T22:00:59.616Z,7.00
2019-05-01T22:03:34.083Z,4.40
2019-05-01T22:06:11.309Z,6.67
2019-05-01T22:08:42.029Z,6.20
2019-05-01T22:11:17.647Z,5.80
2019-05-01T22:13:50.661Z,7.27
2019-05-01T22:16:37.312Z,8.13
2019-05-01T22:19:18.319Z,4.57
2019-05-01T22:22:13.000Z,7.03
2019-05-01T22:24:54.328Z,5.23
2019-05-01T22:27:34.245Z,6.53
2019-05-01T22:30:16.441Z,4.83
2019-05-01T22:32:52.411Z,7.80
2019-05-01T22:35:31.129Z,7.03
2019-05-01T22:38:06.287Z,4.20
2019-05-01T22:41:06.919Z,7.17
2019-05-01T22:43:38.865Z,7.03
2019-05-01T22:46:19.023Z,5.27
2019-05-01T22:48:52.338Z,7.00
2019-05-01T22:51:25.551Z,3.60
2019-05-01T22:53:58.577Z,5.90
2019-05-01T22:56:31.532Z,7.00
2019-05-01T22:59:04.713Z,6.83
2019-05-01T23:01:39.767Z,3.87
2019-05-01T23:04:17.233Z,6.13
2019-05-01T23:06:49.148Z,5.93
2019-05-01T23:09:28.659Z,4.43
2019-05-01T23:12:01.732Z,7.07
2019-05-01T23:14:35.046Z,7.67
2019-05-01T23:17:22.948Z,6.87
2019-05-01T23:19:58.981Z,5.50
2019-05-01T23:22:30.584Z,5.80
2019-05-01T23:25:04.620Z,8.50
2019-05-01T23:27:38.402Z,5.27
2019-05-01T23:30:13.660Z,4.63
2019-05-01T23:32:46.881Z,5.30
2019-05-01T23:35:19.941Z,8.03
2019-05-01T23:37:57.255Z,4.80
2019-05-01T23:40:31.710Z,6.30
2019-05-01T23:43:04.753Z,6.70
2019-05-01T23:45:38.189Z,5.30
2019-05-01T23:48:11.293Z,4.47
2019-05-01T23:50:44.810Z,5.30
2019-05-01T23:53:18.448Z,3.27
2019-05-01T23:55:54.651Z,7.63
2019-05-01T23:58:27.293Z,7.63
